Huetor Vega, Spain
Current Conditions -  °F | °C
As of 6:30 AM on Sunday 23 Nov 2014 (Local Time) from LEGR Reporting Station
Scattered Clouds Scattered Clouds  
Wind Chill: 64°   Ceiling: Unl
Heat Index: 64°   Visibility: 6mi
Dew Point: 46°   Wind: 14mph
Humidity: 52%   Direction: 150°SSE
Pressure: 29.83"   Gusts: 25mph
Location:  37.15°N, 3.57°W
Report Text: LEGR 230530Z 15012G22KT 9999 FEW070 SCT110 18/08 Q1010
Loading
Personal Weather Stations






























Interactive Weather Map New forecast layout! Learn more

10-Day Weather Forecast

Advertisements
Track Severe Weather on mobile